KEYW/EYW METAR and TAF weather

Enter ICAO airport designator
Station Type Date Time Source
KEYW METAR 2020/04/07 05:53 UTC NOAA

KEYW 070553Z AUTO 33008KT 10SM CLR 25/21 A3004 RMK AO2 SLP171 T02500211 10267 20250 58006


Station Type Date Time Source
KEYW Decoded METAR 2020/04/07 05:53 UTC NOAA

KEY WEST INTERNATIONAL AIRPORT , FL, United States (KEYW) 24-33N 81-46W 5M
Apr 07, 2020 - 01:53 AM EDT / 2020.04.07 0553 UTC
Wind: from the NNW (330 degrees) at 9 MPH (8 KT):0
Visibility: 10 mile(s):0
Sky conditions: clear
Temperature: 77.0 F (25.0 C)
Dew Point: 70.0 F (21.1 C)
Relative Humidity: 78%
Pressure (altimeter): 30.04 in. Hg (1017 hPa)
Pressure tendency: 0.02 inches (0.6 hPa) lower than three hours ago
ob: KEYW 070553Z AUTO 33008KT 10SM CLR 25/21 A3004 RMK AO2 SLP171 T02500211 10267 20250 58006
cycle: 6

Station Type Date Time Source
KEYW TAF 2020/04/07 06:45 UTC NOAA

TAF KEYW 070542Z 0706/0806 35007KT P6SM SCT015
FM071200 VRB05KT P6SM FEW020

Example: see airport list